• Join FlightAware (Why Join?)
  • Login
  • US Flag 
11:31AM EDT


 

Airport Tracker/Info


-or-


 

Live Flight TrackerFlight Track Log ✈ AMX682 ✈ 29-Apr-2013 ✈ MMMX / MEX - KORD

Flight Track Log - Related Links

Times and Time Zones

All times are in EDT time to prevent confusion due to time zone crossing. See the AMX682 flight status page for this flight to view local times or setup timezone preferences in your user account.

Time Position Orientation Groundspeed Altitude Reporting Facility
EDT Latitude Longitude Course Direction KTS MPH feet Rate Location/Type
09:12PM 24.9731 -97.2389 12° North 473 544 39,000  Level Houston Center
09:13PM 25.1042 -97.2081 12° North 476 548 39,000 -60 Level Houston Center
09:14PM 25.2358 -97.1758 12° North 479 551 38,900 -60 Descending Houston Center
09:15PM 25.3669 -97.1450 12° North 481 554 38,900  Level Houston Center
09:16PM 25.4978 -97.1114 13° North 481 554 39,000  Climbing Houston Center
09:18PM 25.6497 -97.0781 11° North 478 550 39,000  Level Houston Center
09:19PM 25.7806 -97.0497 11° North 479 551 39,000  Level Houston Center
09:20PM 25.9117 -97.0197 12° North 481 554 39,000  Level Houston Center
09:21PM 26.0533 -96.9872 12° North 483 556 39,000  Level Houston Center
09:22PM 26.1844 -96.9547 13° North 483 556 39,000  Level Houston Center
09:23PM 26.3164 -96.9219 13° North 485 558 39,000  Level Houston Center
09:24PM 26.4572 -96.8878 12° North 482 555 39,000  Level Houston Center
09:25PM 26.5864 -96.8356 20° North 496 571 39,000  Level Houston Center
09:26PM 26.6981 -96.7850 22° Northeast 493 567 39,000 -60 Level Houston Center
09:27PM 26.8247 -96.7289 22° Northeast 491 565 38,900 -60 Descending Houston Center
09:28PM 26.9492 -96.6733 22° Northeast 486 559 38,900  Level Houston Center
09:29PM 27.0989 -96.6072 21° North 482 555 39,000  Climbing Houston Center
09:30PM 27.2083 -96.5575 22° Northeast 479 551 38,900  Descending Houston Center
09:31PM 27.3314 -96.5028 22° Northeast 477 549 39,000  Climbing Houston Center
09:32PM 27.4533 -96.4475 22° Northeast 475 547 38,900  Descending Houston Center
09:33PM 27.6019 -96.3817 21° North 477 549 39,000  Climbing Houston Center
09:34PM 27.7167 -96.3003 32° Northeast 489 563 39,000  Level Houston Center
09:35PM 27.8281 -96.2067 37° Northeast 496 571 39,000  Level Houston Center
09:36PM 27.9389 -96.1147 36° Northeast 496 571 39,000 -60 Level Houston Center
09:37PM 28.0494 -96.0228 36° Northeast 496 571 38,900 -60 Descending Houston Center
09:38PM 28.1614 -95.9314 36° Northeast 496 571 38,900  Level Houston Center
09:39PM 28.2722 -95.8381 37° Northeast 499 574 39,000  Climbing Houston Center
09:40PM 28.3814 -95.7383 39° Northeast 494 568 39,000  Level Houston Center
09:41PM 28.4811 -95.6286 44° Northeast 498 573 39,000  Level Houston Center
09:42PM 28.5772 -95.5161 46° Northeast 497 572 39,000  Level Houston Center
09:43PM 28.6903 -95.3811 46° Northeast 495 570 39,000  Level Houston Center
09:44PM 28.7881 -95.2708 45° Northeast 496 571 39,000  Level Houston Center
09:45PM 28.8936 -95.1758 38° Northeast 488 562 39,000  Level Houston Center
09:46PM 28.9992 -95.0792 39° Northeast 489 563 39,000  Level Houston Center
09:47PM 29.1083 -94.9836 37° Northeast 496 571 39,000  Level Houston Center
09:48PM 29.2308 -94.9314 20° North 479 551 39,000  Level Houston Center
09:49PM 29.3536 -94.8781 21° North 481 554 39,000  Level Houston Center
09:50PM 29.5003 -94.8108 22° Northeast 479 551 39,000  Level Houston Center
09:51PM 29.6208 -94.7517 23° Northeast 476 548 39,000  Level Houston Center
09:52PM 29.7397 -94.6939 23° Northeast 470 541 39,000  Level Houston Center
09:53PM 29.8594 -94.6350 23° Northeast 471 542 39,000  Level Houston Center
09:54PM 29.9806 -94.5781 22° Northeast 474 545 39,000  Level Houston Center
09:55PM 30.0997 -94.5208 23° Northeast 469 540 39,000  Level Houston Center
09:56PM 30.2269 -94.4606 22° Northeast 475 547 39,000  Level Houston Center
09:58PM 30.4675 -94.3425 23° Northeast 466 536 39,000  Level Houston Center
09:59PM 30.5872 -94.2842 23° Northeast 465 535 39,000  Level Houston Center
10:00PM 30.7064 -94.2261 23° Northeast 462 532 39,000  Level Houston Center
10:01PM 30.8497 -94.1575 22° Northeast 460 529 39,000  Level Houston Center
10:02PM 30.9714 -94.0964 23° Northeast 470 541 39,000  Level Houston Center
10:03PM 31.0767 -94.0433 23° Northeast 476 548 39,000  Level Houston Center
10:04PM 31.2233 -93.9708 23° Northeast 478 550 39,000  Level Houston Center
10:05PM 31.3433 -93.9111 23° Northeast 473 544 39,000  Level Houston Center
10:07PM 31.4639 -93.8517 23° Northeast 471 542 39,000  Level Houston Center
10:08PM 31.5833 -93.7942 22° Northeast 467 537 39,000  Level Houston Center
10:08PM 31.6597 -93.7719 14° North 457 526 39,000  Level Fort Worth Center
10:09PM 31.7836 -93.7256 18° North 457 526 39,000  Level Fort Worth Center
10:10PM 31.9075 -93.6814 17° North 457 526 39,000  Level Fort Worth Center
10:11PM 32.0294 -93.6347 18° North 457 526 39,000  Level Fort Worth Center
10:12PM 32.1533 -93.5906 17° North 457 526 39,000  Level Fort Worth Center
10:13PM 32.2872 -93.5333 20° North 457 526 39,000  Level Fort Worth Center
10:14PM 32.4069 -93.4886 18° North 457 526 39,000  Level Fort Worth Center
10:15PM 32.5328 -93.4414 18° North 457 526 39,000  Level Fort Worth Center
10:16PM 32.6567 -93.3964 17° North 457 526 39,000  Level Fort Worth Center
10:17PM 32.7803 -93.3489 18° North 457 526 39,000  Level Fort Worth Center
10:18PM 32.9019 -93.3039 17° North 457 526 39,000  Level Fort Worth Center
10:20PM 33.1022 -93.2339 16° North 452 520 39,000  Level Memphis Center
10:21PM 33.2244 -93.1858 18° North 446 513 39,000  Level Memphis Center
10:22PM 33.3467 -93.1400 17° North 446 513 39,000  Level Memphis Center
10:23PM 33.4708 -93.0942 17° North 446 513 39,000  Level Memphis Center
10:24PM 33.5906 -93.0503 17° North 446 513 39,000  Level Memphis Center
10:25PM 33.7003 -93.0064 18° North 446 513 39,000  Level Memphis Center
10:26PM 33.8222 -92.9625 17° North 446 513 39,000  Level Memphis Center
10:27PM 33.9400 -92.9161 18° North 446 513 39,000  Level Memphis Center
10:28PM 34.0619 -92.8719 17° North 441 507 39,000  Level Memphis Center
10:29PM 34.1817 -92.8278 17° North 441 507 39,000  Level Memphis Center
10:30PM 34.2975 -92.7808 19° North 441 507 39,000  Level Memphis Center
10:31PM 34.4278 -92.7267 19° North 441 507 39,000  Level Memphis Center
10:32PM 34.5456 -92.6819 17° North 441 507 39,000  Level Memphis Center
10:33PM 34.6675 -92.6322 19° North 446 513 39,000  Level Memphis Center
10:34PM 34.7850 -92.5900 16° North 446 513 39,000  Level Memphis Center
10:35PM 34.9047 -92.5425 18° North 446 513 39,000  Level Memphis Center
10:36PM 35.0267 -92.4897 20° North 446 513 39,000  Level Memphis Center
10:37PM 35.1464 -92.4444 17° North 446 513 39,000  Level Memphis Center
10:38PM 35.2556 -92.3989 19° North 446 513 39,000  Level Memphis Center
10:39PM 35.3775 -92.3536 17° North 446 513 39,000  Level Memphis Center
10:40PM 35.4992 -92.3056 18° North 446 513 39,000  Level Memphis Center
10:41PM 35.6186 -92.2572 18° North 446 513 39,000  Level Memphis Center
10:42PM 35.7383 -92.2086 18° North 446 513 39,000  Level Memphis Center
10:43PM 35.8622 -92.1578 18° North 446 513 39,000  Level Memphis Center
10:44PM 35.9836 -92.1117 17° North 446 513 39,000  Level Memphis Center
10:45PM 36.0992 -92.0628 19° North 440 506 39,000  Level Memphis Center
10:46PM 36.2269 -92.0139 17° North 453 521 39,000  Level Memphis Center
10:48PM 36.4392 -91.9217 19° North 459 528 39,000  Level Kansas City Center
10:49PM 36.5592 -91.8711 19° North 456 525 39,000  Level Kansas City Center
10:50PM 36.6933 -91.8169 18° North 455 524 39,000  Level Kansas City Center
10:51PM 36.8139 -91.7683 18° North 454 522 39,000  Level Kansas City Center
10:52PM 36.9331 -91.7228 17° North 449 517 39,000  Level Kansas City Center
10:53PM 37.0531 -91.6708 19° North 453 521 39,000  Level Kansas City Center
10:54PM 37.1753 -91.6208 18° North 457 526 39,000  Level Kansas City Center
10:55PM 37.3203 -91.5589 19° North 459 528 39,000  Level Kansas City Center
10:56PM 37.4411 -91.5075 19° North 460 529 39,000  Level Kansas City Center
10:57PM 37.5644 -91.4556 18° North 461 531 39,000  Level Kansas City Center
10:58PM 37.6839 -91.4050 19° North 460 529 39,000  Level Kansas City Center
10:59PM 37.8067 -91.3531 18° North 462 532 39,000  Level Kansas City Center
11:00PM 37.9286 -91.2994 19° North 464 534 39,000  Level Kansas City Center
11:01PM 38.0508 -91.2483 18° North 463 533 39,000  Level Kansas City Center
11:02PM 38.1714 -91.1978 18° North 462 532 39,000  Level Kansas City Center
11:03PM 38.2936 -91.1456 19° North 462 532 39,000  Level Kansas City Center
11:04PM 38.4139 -91.0942 19° North 459 528 39,000  Level Kansas City Center
11:05PM 38.5336 -91.0414 19° North 456 525 39,000  Level Kansas City Center
11:06PM 38.6525 -90.9900 19° North 452 520 39,000  Level Kansas City Center
11:07PM 38.7669 -90.9333 21° North 443 510 39,000  Level Kansas City Center
11:08PM 38.8789 -90.8717 23° Northeast 435 501 39,000  Level Kansas City Center
11:09PM 38.9925 -90.8119 22° Northeast 436 502 39,000 -60 Level Kansas City Center
11:10PM 39.1053 -90.7506 23° Northeast 436 502 38,900 -540 Descending Kansas City Center
11:11PM 39.2439 -90.6753 23° Northeast 446 513 38,000 -840 Descending Kansas City Center
11:12PM 39.3631 -90.6097 23° Northeast 458 527 37,200 -540 Descending Kansas City Center
11:13PM 39.4825 -90.5439 23° Northeast 464 534 37,000 -420 Descending Kansas City Center
11:14PM 39.6014 -90.4758 24° Northeast 466 536 36,400 -780 Descending Kansas City Center
11:15PM 39.7217 -90.4089 23° Northeast 469 540 35,500 -720 Descending Kansas City Center
11:16PM 39.8281 -90.3489 23° Northeast 469 540 35,000 -360 Descending Kansas City Center
11:17PM 39.8997 -90.3094 23° Northeast 468 539 35,000  Level Chicago Center
11:18PM 40.0419 -90.2283 24° Northeast 464 534 35,000  Level Chicago Center
11:19PM 40.1617 -90.1622 23° Northeast 466 536 35,000  Level Chicago Center
11:20PM 40.2731 -90.0719 32° Northeast 474 545 35,000 -180 Level Chicago Center
11:21PM 40.3753 -89.9617 39° Northeast 477 549 34,700 -540 Descending Chicago Center
11:22PM 40.4714 -89.8564 40° Northeast 477 549 34,000 -720 Descending Chicago Center
11:23PM 40.5731 -89.7436 40° Northeast 480 552 33,300 -1,320 Descending Chicago Center
11:24PM 40.6789 -89.6347 38° Northeast 478 550 31,400 -2,640 Descending Chicago Center
11:25PM 40.7811 -89.5206 40° Northeast 482 555 28,000 -3,240 Descending Chicago Center
11:26PM 40.9014 -89.3883 40° Northeast 476 548 24,900 -2,640 Descending Chicago Center
11:27PM 40.9953 -89.2858 39° Northeast 451 519 22,700 -2,160 Descending Chicago Center
11:28PM 41.0867 -89.1842 40° Northeast 434 499 20,600 -2,040 Descending Chicago Center
11:29PM 41.1744 -89.0872 40° Northeast 416 479 18,700 -1,920 Descending Chicago Center
11:30PM 41.2581 -88.9925 40° Northeast 404 465 16,700 -1,920 Descending Chicago Center
11:31PM 41.3406 -88.8992 40° Northeast 394 453 14,900 -1,800 Descending Chicago Center
11:32PM 41.4217 -88.8094 40° Northeast 380 437 13,100 -1,800 Descending Chicago Center
11:33PM 41.4978 -88.7231 40° Northeast 360 414 11,300 -1,080 Descending Chicago Center
11:34PM 41.5494 -88.6142 58° Northeast 346 398 11,000 -180 Descending Chicago Center
11:35PM 41.5919 -88.5044 63° Northeast 334 384 11,000  Level Chicago Center
11:36PM 41.6472 -88.3989 55° Northeast 342 394 11,000 -360 Level Chicago Center
11:37PM 41.7069 -88.3006 51° Northeast 337 388 10,300 -840 Descending Chicago Center
11:38PM 41.7686 -88.2156 46° Northeast 319 367 9,400 -1,140 Descending Chicago Center
11:39PM 41.8256 -88.1358 46° Northeast 300 345 8,100 -1,140 Descending Chicago Center
11:40PM 41.8981 -88.1058 17° North 288 331 7,100 -900 Descending Chicago Center
11:41PM 41.9836 -88.1119 357° North 264 304 6,300 -1,080 Descending Chicago Center
11:42PM 42.0511 -88.1447 340° North 259 298 5,000 -660 Descending Chicago Center
11:43PM 42.1064 -88.1956 326° Northwest 244 281 5,000 -300 Level Chicago Center
11:44PM 42.1431 -88.1356 50° Northeast 244 281 4,400 -900 Descending Chicago Center
11:45PM 42.1089 -88.0667 124° Southeast 235 270 3,200 -1,080 Descending Chicago Center
11:46PM 42.0667 -88.0333 150° Southeast 178 205 2,500 -660 Descending Chicago TRACON
11:47PM 42.0500 -88.0000 124° Southeast 129 148 2,000 -600 Descending Chicago TRACON
11:48PM 42.0167 -87.9667 143° Southeast 122 140 1,300 -720 Descending Chicago TRACON
11:50PM 41.9817 -87.9067 136° Southeast  Level Estimated
11:57PM 41.9817 -87.9067 136° Southeast  Level Estimated